sensor_id;sensor_type;location;lat;lon;timestamp;pressure;altitude;pressure_sealevel;temperature;humidity
7930;BME280;4010;42.698;23.124;2023-03-11T00:00:34;118349.16;;;-140.64;100.00
7930;BME280;4010;42.698;23.124;2023-03-11T00:03:02;118349.16;;;-140.64;100.00
7930;BME280;4010;42.698;23.124;2023-03-11T00:05:32;118349.16;;;-140.64;100.00
7930;BME280;4010;42.698;23.124;2023-03-11T00:08:00;118349.16;;;-140.64;100.00
7930;BME280;4010;42.698;23.124;2023-03-11T00:10:30;118349.16;;;-140.64;100.00
7930;BME280;4010;42.698;23.124;2023-03-11T00:12:57;118349.16;;;-140.64;100.00
7930;BME280;4010;42.698;23.124;2023-03-11T00:15:24;118349.16;;;-140.64;100.00
7930;BME280;4010;42.698;23.124;2023-03-11T00:17:51;118349.16;;;-140.64;100.00
7930;BME280;4010;42.698;23.124;2023-03-11T00:20:20;118349.16;;;-140.64;100.00
7930;BME280;4010;42.698;23.124;2023-03-11T00:22:49;118349.16;;;-140.64;100.00
7930;BME280;4010;42.698;23.124;2023-03-11T00:25:17;118349.16;;;-140.64;100.00
7930;BME280;4010;42.698;23.124;2023-03-11T00:27:44;118349.16;;;-140.64;100.00
7930;BME280;4010;42.698;23.124;2023-03-11T00:30:12;118349.16;;;-140.64;100.00
7930;BME280;4010;42.698;23.124;2023-03-11T00:32:39;118349.16;;;-140.64;100.00
7930;BME280;4010;42.698;23.124;2023-03-11T00:35:07;118349.16;;;-140.64;100.00
7930;BME280;4010;42.698;23.124;2023-03-11T00:37:34;118349.16;;;-140.64;100.00
7930;BME280;4010;42.698;23.124;2023-03-11T00:40:03;118349.16;;;-140.64;100.00
7930;BME280;4010;42.698;23.124;2023-03-11T00:42:32;118349.16;;;-140.64;100.00
7930;BME280;4010;42.698;23.124;2023-03-11T00:44:59;118349.16;;;-140.64;100.00
7930;BME280;4010;42.698;23.124;2023-03-11T00:47:26;118349.16;;;-140.64;100.00
7930;BME280;4010;42.698;23.124;2023-03-11T00:49:52;118349.16;;;-140.64;100.00
7930;BME280;4010;42.698;23.124;2023-03-11T00:52:19;118349.16;;;-140.64;100.00
7930;BME280;4010;42.698;23.124;2023-03-11T00:54:46;118349.16;;;-140.64;100.00
7930;BME280;4010;42.698;23.124;2023-03-11T00:57:14;118349.16;;;-140.64;100.00
7930;BME280;4010;42.698;23.124;2023-03-11T00:59:40;118349.16;;;-140.64;100.00
7930;BME280;4010;42.698;23.124;2023-03-11T01:02:07;118349.16;;;-140.64;100.00
7930;BME280;4010;42.698;23.124;2023-03-11T01:04:34;118349.16;;;-140.64;100.00
7930;BME280;4010;42.698;23.124;2023-03-11T01:07:01;118349.16;;;-140.64;100.00
7930;BME280;4010;42.698;23.124;2023-03-11T01:09:27;118349.16;;;-140.64;100.00
7930;BME280;4010;42.698;23.124;2023-03-11T01:11:54;118349.16;;;-140.64;100.00
7930;BME280;4010;42.698;23.124;2023-03-11T01:14:22;118349.16;;;-140.64;100.00
7930;BME280;4010;42.698;23.124;2023-03-11T01:16:49;118349.16;;;-140.64;100.00
7930;BME280;4010;42.698;23.124;2023-03-11T01:19:16;118349.16;;;-140.64;100.00
7930;BME280;4010;42.698;23.124;2023-03-11T01:21:42;118349.16;;;-140.64;100.00
7930;BME280;4010;42.698;23.124;2023-03-11T01:24:09;118349.16;;;-140.64;100.00
7930;BME280;4010;42.698;23.124;2023-03-11T01:26:36;118349.16;;;-140.64;100.00
7930;BME280;4010;42.698;23.124;2023-03-11T01:29:03;118349.16;;;-140.64;100.00
7930;BME280;4010;42.698;23.124;2023-03-11T01:31:31;118349.16;;;-140.64;100.00
7930;BME280;4010;42.698;23.124;2023-03-11T01:33:57;118349.16;;;-140.64;100.00
7930;BME280;4010;42.698;23.124;2023-03-11T01:36:24;118349.16;;;-140.64;100.00
7930;BME280;4010;42.698;23.124;2023-03-11T01:38:51;118349.16;;;-140.64;100.00
7930;BME280;4010;42.698;23.124;2023-03-11T01:41:17;118349.16;;;-140.64;100.00
7930;BME280;4010;42.698;23.124;2023-03-11T01:43:50;118349.16;;;-140.64;100.00
7930;BME280;4010;42.698;23.124;2023-03-11T01:46:20;118349.16;;;-140.64;100.00
7930;BME280;4010;42.698;23.124;2023-03-11T01:48:50;118349.16;;;-140.64;100.00
7930;BME280;4010;42.698;23.124;2023-03-11T01:51:22;118349.16;;;-140.64;100.00
7930;BME280;4010;42.698;23.124;2023-03-11T01:53:50;118349.16;;;-140.64;100.00
7930;BME280;4010;42.698;23.124;2023-03-11T01:56:18;118349.16;;;-140.64;100.00
7930;BME280;4010;42.698;23.124;2023-03-11T01:58:45;118349.16;;;-140.64;100.00
7930;BME280;4010;42.698;23.124;2023-03-11T02:01:15;118349.16;;;-140.64;100.00
7930;BME280;4010;42.698;23.124;2023-03-11T02:03:42;118349.16;;;-140.64;100.00
7930;BME280;4010;42.698;23.124;2023-03-11T02:06:13;118349.16;;;-140.64;100.00
7930;BME280;4010;42.698;23.124;2023-03-11T02:08:42;118349.16;;;-140.64;100.00
7930;BME280;4010;42.698;23.124;2023-03-11T02:11:11;118349.16;;;-140.64;100.00
7930;BME280;4010;42.698;23.124;2023-03-11T02:13:40;118349.16;;;-140.64;100.00
7930;BME280;4010;42.698;23.124;2023-03-11T02:16:08;118349.16;;;-140.64;100.00
7930;BME280;4010;42.698;23.124;2023-03-11T02:18:36;118349.16;;;-140.64;100.00
7930;BME280;4010;42.698;23.124;2023-03-11T02:21:12;118349.16;;;-140.64;100.00
7930;BME280;4010;42.698;23.124;2023-03-11T02:23:46;118349.16;;;-140.64;100.00
7930;BME280;4010;42.698;23.124;2023-03-11T02:26:18;118349.16;;;-140.64;100.00
7930;BME280;4010;42.698;23.124;2023-03-11T02:28:49;118349.16;;;-140.64;100.00
7930;BME280;4010;42.698;23.124;2023-03-11T02:31:16;118349.16;;;-140.64;100.00
7930;BME280;4010;42.698;23.124;2023-03-11T02:33:44;118349.16;;;-140.64;100.00
7930;BME280;4010;42.698;23.124;2023-03-11T02:36:35;118349.16;;;-140.64;100.00
7930;BME280;4010;42.698;23.124;2023-03-11T02:39:03;118349.16;;;-140.64;100.00
7930;BME280;4010;42.698;23.124;2023-03-11T02:41:31;118349.16;;;-140.64;100.00
7930;BME280;4010;42.698;23.124;2023-03-11T02:44:00;118349.16;;;-140.64;100.00
7930;BME280;4010;42.698;23.124;2023-03-11T02:46:28;118349.16;;;-140.64;100.00
7930;BME280;4010;42.698;23.124;2023-03-11T02:48:55;118349.16;;;-140.64;100.00
7930;BME280;4010;42.698;23.124;2023-03-11T02:51:23;118349.16;;;-140.64;100.00
7930;BME280;4010;42.698;23.124;2023-03-11T02:53:52;118349.16;;;-140.64;100.00
7930;BME280;4010;42.698;23.124;2023-03-11T02:56:20;118349.16;;;-140.64;100.00
7930;BME280;4010;42.698;23.124;2023-03-11T02:58:47;118349.16;;;-140.64;100.00
7930;BME280;4010;42.698;23.124;2023-03-11T03:01:15;118349.16;;;-140.64;100.00
7930;BME280;4010;42.698;23.124;2023-03-11T03:03:42;118349.16;;;-140.64;100.00
7930;BME280;4010;42.698;23.124;2023-03-11T03:06:08;118349.16;;;-140.64;100.00
7930;BME280;4010;42.698;23.124;2023-03-11T03:08:35;118349.16;;;-140.64;100.00
7930;BME280;4010;42.698;23.124;2023-03-11T03:11:02;118349.16;;;-140.64;100.00
7930;BME280;4010;42.698;23.124;2023-03-11T03:13:29;118349.16;;;-140.64;100.00
7930;BME280;4010;42.698;23.124;2023-03-11T03:15:57;118349.16;;;-140.64;100.00
7930;BME280;4010;42.698;23.124;2023-03-11T03:18:25;118349.16;;;-140.64;100.00
7930;BME280;4010;42.698;23.124;2023-03-11T03:20:52;118349.16;;;-140.64;100.00
7930;BME280;4010;42.698;23.124;2023-03-11T03:23:19;118349.16;;;-140.64;100.00
7930;BME280;4010;42.698;23.124;2023-03-11T03:25:46;118349.16;;;-140.64;100.00
7930;BME280;4010;42.698;23.124;2023-03-11T03:28:12;118349.16;;;-140.64;100.00
7930;BME280;4010;42.698;23.124;2023-03-11T03:30:40;118349.16;;;-140.64;100.00
7930;BME280;4010;42.698;23.124;2023-03-11T03:33:07;118349.16;;;-140.64;100.00
7930;BME280;4010;42.698;23.124;2023-03-11T03:35:39;118349.16;;;-140.64;100.00
7930;BME280;4010;42.698;23.124;2023-03-11T03:38:06;118349.16;;;-140.64;100.00
7930;BME280;4010;42.698;23.124;2023-03-11T03:40:33;118349.16;;;-140.64;100.00
7930;BME280;4010;42.698;23.124;2023-03-11T03:43:00;118349.16;;;-140.64;100.00
7930;BME280;4010;42.698;23.124;2023-03-11T03:45:27;118349.16;;;-140.64;100.00
7930;BME280;4010;42.698;23.124;2023-03-11T03:47:54;118349.16;;;-140.64;100.00
7930;BME280;4010;42.698;23.124;2023-03-11T03:50:20;118349.16;;;-140.64;100.00
7930;BME280;4010;42.698;23.124;2023-03-11T03:52:48;118349.16;;;-140.64;100.00
7930;BME280;4010;42.698;23.124;2023-03-11T03:55:15;118349.16;;;-140.64;100.00
7930;BME280;4010;42.698;23.124;2023-03-11T03:57:42;118349.16;;;-140.64;100.00
7930;BME280;4010;42.698;23.124;2023-03-11T04:00:10;118349.16;;;-140.64;100.00
7930;BME280;4010;42.698;23.124;2023-03-11T04:02:37;118349.16;;;-140.64;100.00
7930;BME280;4010;42.698;23.124;2023-03-11T04:05:04;118349.16;;;-140.64;100.00
7930;BME280;4010;42.698;23.124;2023-03-11T04:07:32;118349.16;;;-140.64;100.00
7930;BME280;4010;42.698;23.124;2023-03-11T04:10:01;118349.16;;;-140.64;100.00
7930;BME280;4010;42.698;23.124;2023-03-11T04:12:27;118349.16;;;-140.64;100.00
7930;BME280;4010;42.698;23.124;2023-03-11T04:14:54;118349.16;;;-140.64;100.00
7930;BME280;4010;42.698;23.124;2023-03-11T04:17:21;118349.16;;;-140.64;100.00
7930;BME280;4010;42.698;23.124;2023-03-11T04:19:47;118349.16;;;-140.64;100.00
7930;BME280;4010;42.698;23.124;2023-03-11T04:22:14;118349.16;;;-140.64;100.00
7930;BME280;4010;42.698;23.124;2023-03-11T04:24:41;118349.16;;;-140.64;100.00
7930;BME280;4010;42.698;23.124;2023-03-11T04:27:09;118349.16;;;-140.64;100.00
7930;BME280;4010;42.698;23.124;2023-03-11T04:29:36;118349.16;;;-140.64;100.00
7930;BME280;4010;42.698;23.124;2023-03-11T04:32:03;118349.16;;;-140.64;100.00
7930;BME280;4010;42.698;23.124;2023-03-11T04:34:30;118349.16;;;-140.64;100.00
7930;BME280;4010;42.698;23.124;2023-03-11T04:36:56;118349.16;;;-140.64;100.00
7930;BME280;4010;42.698;23.124;2023-03-11T04:39:23;118349.16;;;-140.64;100.00
7930;BME280;4010;42.698;23.124;2023-03-11T04:41:50;118349.16;;;-140.64;100.00
7930;BME280;4010;42.698;23.124;2023-03-11T04:44:18;118349.16;;;-140.64;100.00
7930;BME280;4010;42.698;23.124;2023-03-11T04:46:44;118349.16;;;-140.64;100.00
7930;BME280;4010;42.698;23.124;2023-03-11T04:49:11;118349.16;;;-140.64;100.00
7930;BME280;4010;42.698;23.124;2023-03-11T04:51:38;118349.16;;;-140.64;100.00
7930;BME280;4010;42.698;23.124;2023-03-11T04:54:05;118349.16;;;-140.64;99.83
7930;BME280;4010;42.698;23.124;2023-03-11T04:56:31;118349.16;;;-140.64;98.84
7930;BME280;4010;42.698;23.124;2023-03-11T04:58:58;118349.16;;;-140.64;99.12
7930;BME280;4010;42.698;23.124;2023-03-11T05:01:27;118349.16;;;-140.64;98.74
7930;BME280;4010;42.698;23.124;2023-03-11T05:03:53;118349.16;;;-140.64;98.22
7930;BME280;4010;42.698;23.124;2023-03-11T05:06:20;118349.16;;;-140.64;98.48
7930;BME280;4010;42.698;23.124;2023-03-11T05:08:47;118349.16;;;-140.64;97.73
7930;BME280;4010;42.698;23.124;2023-03-11T05:11:13;118349.16;;;-140.64;97.42
7930;BME280;4010;42.698;23.124;2023-03-11T05:13:40;118349.16;;;-140.64;97.25
7930;BME280;4010;42.698;23.124;2023-03-11T05:16:07;118349.16;;;-140.64;98.04
7930;BME280;4010;42.698;23.124;2023-03-11T05:18:35;118349.16;;;-140.64;98.18
7930;BME280;4010;42.698;23.124;2023-03-11T05:21:02;118349.16;;;-140.64;99.46
7930;BME280;4010;42.698;23.124;2023-03-11T05:23:28;118349.16;;;-140.64;100.00
7930;BME280;4010;42.698;23.124;2023-03-11T05:25:55;118349.16;;;-140.64;99.89
7930;BME280;4010;42.698;23.124;2023-03-11T05:28:22;118349.16;;;-140.64;99.87
7930;BME280;4010;42.698;23.124;2023-03-11T05:30:48;118349.16;;;-140.64;99.82
7930;BME280;4010;42.698;23.124;2023-03-11T05:33:15;118349.16;;;-140.64;99.67
7930;BME280;4010;42.698;23.124;2023-03-11T05:35:44;118349.16;;;-140.64;100.00
7930;BME280;4010;42.698;23.124;2023-03-11T05:38:10;118349.16;;;-140.64;100.00
7930;BME280;4010;42.698;23.124;2023-03-11T05:40:37;118349.16;;;-140.64;100.00
7930;BME280;4010;42.698;23.124;2023-03-11T05:43:04;118349.16;;;-140.64;100.00
7930;BME280;4010;42.698;23.124;2023-03-11T05:45:30;118349.16;;;-140.64;100.00
7930;BME280;4010;42.698;23.124;2023-03-11T05:47:57;118349.16;;;-140.64;100.00
7930;BME280;4010;42.698;23.124;2023-03-11T05:50:24;118349.16;;;-140.64;100.00
7930;BME280;4010;42.698;23.124;2023-03-11T05:52:52;118349.16;;;-140.64;100.00
7930;BME280;4010;42.698;23.124;2023-03-11T05:55:18;118349.16;;;-140.64;100.00
7930;BME280;4010;42.698;23.124;2023-03-11T05:57:45;118349.16;;;-140.64;100.00
7930;BME280;4010;42.698;23.124;2023-03-11T06:00:13;118349.16;;;-140.64;100.00
7930;BME280;4010;42.698;23.124;2023-03-11T06:02:40;118349.16;;;-140.64;100.00
7930;BME280;4010;42.698;23.124;2023-03-11T06:05:08;118349.16;;;-140.64;100.00
7930;BME280;4010;42.698;23.124;2023-03-11T06:07:35;118349.16;;;-140.64;100.00
7930;BME280;4010;42.698;23.124;2023-03-11T06:10:04;118349.16;;;-140.64;100.00
7930;BME280;4010;42.698;23.124;2023-03-11T06:12:32;118349.16;;;-140.64;98.64
7930;BME280;4010;42.698;23.124;2023-03-11T06:14:59;118349.16;;;-140.64;97.40
7930;BME280;4010;42.698;23.124;2023-03-11T06:17:26;118349.16;;;-140.64;96.41
7930;BME280;4010;42.698;23.124;2023-03-11T06:19:53;118349.16;;;-140.64;95.34
7930;BME280;4010;42.698;23.124;2023-03-11T06:22:19;118349.16;;;-140.64;94.70
7930;BME280;4010;42.698;23.124;2023-03-11T06:24:46;118349.16;;;-140.64;93.89
7930;BME280;4010;42.698;23.124;2023-03-11T06:27:14;118349.16;;;-140.64;93.06
7930;BME280;4010;42.698;23.124;2023-03-11T06:29:41;118349.16;;;-140.64;92.96
7930;BME280;4010;42.698;23.124;2023-03-11T06:32:08;118349.16;;;-140.64;92.51
7930;BME280;4010;42.698;23.124;2023-03-11T06:34:35;118349.16;;;-140.64;92.17
7930;BME280;4010;42.698;23.124;2023-03-11T06:37:02;118349.16;;;-140.64;92.25
7930;BME280;4010;42.698;23.124;2023-03-11T06:39:28;118349.16;;;-140.64;91.28
7930;BME280;4010;42.698;23.124;2023-03-11T06:41:55;118349.16;;;-140.64;91.37
7930;BME280;4010;42.698;23.124;2023-03-11T06:44:23;118349.16;;;-140.64;90.62
7930;BME280;4010;42.698;23.124;2023-03-11T06:46:50;118349.16;;;-140.64;90.80
7930;BME280;4010;42.698;23.124;2023-03-11T06:49:17;118349.16;;;-140.64;90.50
7930;BME280;4010;42.698;23.124;2023-03-11T06:51:43;118349.16;;;-140.64;90.57
7930;BME280;4010;42.698;23.124;2023-03-11T06:54:10;118349.16;;;-140.64;90.25
7930;BME280;4010;42.698;23.124;2023-03-11T06:56:37;118349.16;;;-140.64;90.72
7930;BME280;4010;42.698;23.124;2023-03-11T06:59:03;118349.16;;;-140.64;89.90
7930;BME280;4010;42.698;23.124;2023-03-11T07:01:31;118349.16;;;-140.64;89.47
7930;BME280;4010;42.698;23.124;2023-03-11T07:03:58;118349.16;;;-140.64;88.67
7930;BME280;4010;42.698;23.124;2023-03-11T07:06:26;118349.16;;;-140.64;88.51
7930;BME280;4010;42.698;23.124;2023-03-11T07:08:54;118349.16;;;-140.64;89.22
7930;BME280;4010;42.698;23.124;2023-03-11T07:11:22;118349.16;;;-140.64;88.20
7930;BME280;4010;42.698;23.124;2023-03-11T07:13:49;118349.16;;;-140.64;88.56
7930;BME280;4010;42.698;23.124;2023-03-11T07:16:18;118349.16;;;-140.64;86.91
7930;BME280;4010;42.698;23.124;2023-03-11T07:18:47;118349.16;;;-140.64;86.28
7930;BME280;4010;42.698;23.124;2023-03-11T07:21:16;118349.16;;;-140.64;84.68
7930;BME280;4010;42.698;23.124;2023-03-11T07:23:43;118349.16;;;-140.64;84.24
7930;BME280;4010;42.698;23.124;2023-03-11T07:26:12;118349.16;;;-140.64;84.27
7930;BME280;4010;42.698;23.124;2023-03-11T07:28:39;118349.16;;;-140.64;84.37
7930;BME280;4010;42.698;23.124;2023-03-11T07:31:07;118349.16;;;-140.64;83.95
7930;BME280;4010;42.698;23.124;2023-03-11T07:33:34;118349.16;;;-140.64;83.66
7930;BME280;4010;42.698;23.124;2023-03-11T07:36:08;118349.16;;;-140.64;81.78
7930;BME280;4010;42.698;23.124;2023-03-11T07:38:35;118349.16;;;-140.64;82.71
7930;BME280;4010;42.698;23.124;2023-03-11T07:41:03;118349.16;;;-140.64;81.92
7930;BME280;4010;42.698;23.124;2023-03-11T07:43:29;118349.16;;;-140.64;82.02
7930;BME280;4010;42.698;23.124;2023-03-11T07:46:04;118349.16;;;-140.64;82.15
7930;BME280;4010;42.698;23.124;2023-03-11T07:51:02;118349.16;;;-140.64;83.28
7930;BME280;4010;42.698;23.124;2023-03-11T07:53:31;118349.16;;;-140.64;80.89
7930;BME280;4010;42.698;23.124;2023-03-11T07:55:58;118349.16;;;-140.64;78.90
7930;BME280;4010;42.698;23.124;2023-03-11T07:58:26;118349.16;;;-140.64;77.88
7930;BME280;4010;42.698;23.124;2023-03-11T08:00:53;118349.16;;;-140.64;78.72
7930;BME280;4010;42.698;23.124;2023-03-11T08:03:21;118349.16;;;-140.64;74.80
7930;BME280;4010;42.698;23.124;2023-03-11T08:05:48;118349.16;;;-140.64;74.55
7930;BME280;4010;42.698;23.124;2023-03-11T08:08:15;118349.16;;;-140.64;76.51
7930;BME280;4010;42.698;23.124;2023-03-11T08:10:43;118349.16;;;-140.64;74.78
7930;BME280;4010;42.698;23.124;2023-03-11T08:13:10;118349.16;;;-140.64;73.62
7930;BME280;4010;42.698;23.124;2023-03-11T08:15:36;118349.16;;;-140.64;73.69
7930;BME280;4010;42.698;23.124;2023-03-11T08:18:03;118349.16;;;-140.64;74.82
7930;BME280;4010;42.698;23.124;2023-03-11T08:20:30;118349.16;;;-140.64;72.71
7930;BME280;4010;42.698;23.124;2023-03-11T08:22:57;118349.16;;;-140.64;74.05
7930;BME280;4010;42.698;23.124;2023-03-11T08:25:24;118349.16;;;-140.64;74.60
7930;BME280;4010;42.698;23.124;2023-03-11T08:27:52;118349.16;;;-140.64;73.74
7930;BME280;4010;42.698;23.124;2023-03-11T08:30:19;118349.16;;;-140.64;72.93
7930;BME280;4010;42.698;23.124;2023-03-11T08:32:46;118349.16;;;-140.64;73.76
7930;BME280;4010;42.698;23.124;2023-03-11T08:35:13;118349.16;;;-140.64;75.79
7930;BME280;4010;42.698;23.124;2023-03-11T08:37:40;118349.16;;;-140.64;73.11
7930;BME280;4010;42.698;23.124;2023-03-11T08:40:09;118349.16;;;-140.64;74.16
7930;BME280;4010;42.698;23.124;2023-03-11T08:42:36;118349.16;;;-140.64;72.96
7930;BME280;4010;42.698;23.124;2023-03-11T08:45:05;118349.16;;;-140.64;71.35
7930;BME280;4010;42.698;23.124;2023-03-11T08:47:33;118349.16;;;-140.64;74.06
7930;BME280;4010;42.698;23.124;2023-03-11T08:50:00;118349.16;;;-140.64;72.09
7930;BME280;4010;42.698;23.124;2023-03-11T08:52:27;118349.16;;;-140.64;68.94
7930;BME280;4010;42.698;23.124;2023-03-11T08:54:53;118349.16;;;-140.64;72.12
7930;BME280;4010;42.698;23.124;2023-03-11T08:57:20;118349.16;;;-140.64;69.64
7930;BME280;4010;42.698;23.124;2023-03-11T08:59:47;118349.16;;;-140.64;71.27
7930;BME280;4010;42.698;23.124;2023-03-11T09:02:15;118349.16;;;-140.64;69.90
7930;BME280;4010;42.698;23.124;2023-03-11T09:04:42;118349.16;;;-140.64;71.02
7930;BME280;4010;42.698;23.124;2023-03-11T09:07:10;118349.16;;;-140.64;69.73
7930;BME280;4010;42.698;23.124;2023-03-11T09:09:37;118349.16;;;-140.64;69.67
7930;BME280;4010;42.698;23.124;2023-03-11T09:12:04;118349.16;;;-140.64;72.01
7930;BME280;4010;42.698;23.124;2023-03-11T09:14:32;118349.16;;;-140.64;71.53
7930;BME280;4010;42.698;23.124;2023-03-11T09:16:59;118349.16;;;-140.64;67.92
7930;BME280;4010;42.698;23.124;2023-03-11T09:19:28;118349.16;;;-140.64;65.33
7930;BME280;4010;42.698;23.124;2023-03-11T09:21:54;118349.16;;;-140.64;67.19
7930;BME280;4010;42.698;23.124;2023-03-11T09:24:21;118349.16;;;-140.64;66.33
7930;BME280;4010;42.698;23.124;2023-03-11T09:26:48;118349.16;;;-140.64;68.31
7930;BME280;4010;42.698;23.124;2023-03-11T09:29:14;118349.16;;;-140.64;67.65
7930;BME280;4010;42.698;23.124;2023-03-11T09:31:41;118349.16;;;-140.64;67.26
7930;BME280;4010;42.698;23.124;2023-03-11T09:34:09;118349.16;;;-140.64;66.82
7930;BME280;4010;42.698;23.124;2023-03-11T09:36:39;118349.16;;;-140.64;65.09
7930;BME280;4010;42.698;23.124;2023-03-11T09:39:06;118349.16;;;-140.64;63.99
7930;BME280;4010;42.698;23.124;2023-03-11T09:41:38;118349.16;;;-140.64;66.63
7930;BME280;4010;42.698;23.124;2023-03-11T09:44:11;118349.16;;;-140.64;65.86
7930;BME280;4010;42.698;23.124;2023-03-11T09:46:59;118349.16;;;-140.64;63.45
7930;BME280;4010;42.698;23.124;2023-03-11T09:49:42;118349.16;;;-140.64;61.08
7930;BME280;4010;42.698;23.124;2023-03-11T09:52:14;118349.16;;;-140.64;60.20
7930;BME280;4010;42.698;23.124;2023-03-11T09:54:45;118349.16;;;-140.64;59.25
7930;BME280;4010;42.698;23.124;2023-03-11T09:57:17;118349.16;;;-140.64;58.41
7930;BME280;4010;42.698;23.124;2023-03-11T09:59:45;118349.16;;;-140.64;57.66
7930;BME280;4010;42.698;23.124;2023-03-11T10:02:15;118349.16;;;-140.64;61.14
7930;BME280;4010;42.698;23.124;2023-03-11T10:04:50;118349.16;;;-140.64;60.94
7930;BME280;4010;42.698;23.124;2023-03-11T10:07:22;118349.16;;;-140.64;58.45
7930;BME280;4010;42.698;23.124;2023-03-11T10:09:52;118349.16;;;-140.64;59.54
7930;BME280;4010;42.698;23.124;2023-03-11T10:12:30;118349.16;;;-140.64;56.73
7930;BME280;4010;42.698;23.124;2023-03-11T10:15:12;118349.16;;;-140.64;56.64
7930;BME280;4010;42.698;23.124;2023-03-11T10:18:01;118349.16;;;-140.64;56.37
7930;BME280;4010;42.698;23.124;2023-03-11T10:20:38;118349.16;;;-140.64;56.37
7930;BME280;4010;42.698;23.124;2023-03-11T10:23:16;118349.16;;;-140.64;55.93
7930;BME280;4010;42.698;23.124;2023-03-11T10:25:53;118349.16;;;-140.64;55.61
7930;BME280;4010;42.698;23.124;2023-03-11T10:28:26;118349.16;;;-140.64;56.07
7930;BME280;4010;42.698;23.124;2023-03-11T10:30:56;118349.16;;;-140.64;56.10
7930;BME280;4010;42.698;23.124;2023-03-11T10:33:32;118349.16;;;-140.64;55.50
7930;BME280;4010;42.698;23.124;2023-03-11T10:36:04;118349.16;;;-140.64;57.12
7930;BME280;4010;42.698;23.124;2023-03-11T10:38:36;118349.16;;;-140.64;55.75
7930;BME280;4010;42.698;23.124;2023-03-11T10:41:12;118349.16;;;-140.64;57.18
7930;BME280;4010;42.698;23.124;2023-03-11T10:43:43;118349.16;;;-140.64;57.59
7930;BME280;4010;42.698;23.124;2023-03-11T10:46:17;118349.16;;;-140.64;60.26
7930;BME280;4010;42.698;23.124;2023-03-11T10:48:44;118349.16;;;-140.64;57.48
7930;BME280;4010;42.698;23.124;2023-03-11T10:51:14;118349.16;;;-140.64;56.16
7930;BME280;4010;42.698;23.124;2023-03-11T10:53:48;118349.16;;;-140.64;57.00
7930;BME280;4010;42.698;23.124;2023-03-11T10:56:26;118349.16;;;-140.64;56.14
7930;BME280;4010;42.698;23.124;2023-03-11T10:58:53;118349.16;;;-140.64;57.99
7930;BME280;4010;42.698;23.124;2023-03-11T11:01:20;118349.16;;;-140.64;57.63
7930;BME280;4010;42.698;23.124;2023-03-11T11:03:49;118349.16;;;-140.64;57.47
7930;BME280;4010;42.698;23.124;2023-03-11T11:06:20;118349.16;;;-140.64;56.38
7930;BME280;4010;42.698;23.124;2023-03-11T11:09:03;118349.16;;;-140.64;55.16
7930;BME280;4010;42.698;23.124;2023-03-11T11:11:31;118349.16;;;-140.64;54.85
7930;BME280;4010;42.698;23.124;2023-03-11T11:13:58;118349.16;;;-140.64;56.25
7930;BME280;4010;42.698;23.124;2023-03-11T11:16:26;118349.16;;;-140.64;56.65
7930;BME280;4010;42.698;23.124;2023-03-11T11:18:56;118349.16;;;-140.64;55.78
7930;BME280;4010;42.698;23.124;2023-03-11T11:21:30;118349.16;;;-140.64;55.48
7930;BME280;4010;42.698;23.124;2023-03-11T11:24:16;118349.16;;;-140.64;55.98
7930;BME280;4010;42.698;23.124;2023-03-11T11:27:02;118349.16;;;-140.64;55.56
7930;BME280;4010;42.698;23.124;2023-03-11T11:29:29;118349.16;;;-140.64;54.37
7930;BME280;4010;42.698;23.124;2023-03-11T11:32:15;118349.16;;;-140.64;56.23
7930;BME280;4010;42.698;23.124;2023-03-11T11:34:52;118349.16;;;-140.64;55.78
7930;BME280;4010;42.698;23.124;2023-03-11T11:37:19;118349.16;;;-140.64;53.77
7930;BME280;4010;42.698;23.124;2023-03-11T11:39:52;118349.16;;;-140.64;52.28
7930;BME280;4010;42.698;23.124;2023-03-11T11:42:21;118349.16;;;-140.64;53.66
7930;BME280;4010;42.698;23.124;2023-03-11T11:44:52;118349.16;;;-140.64;52.45
7930;BME280;4010;42.698;23.124;2023-03-11T11:47:24;118349.16;;;-140.64;53.01
7930;BME280;4010;42.698;23.124;2023-03-11T11:49:55;118349.16;;;-140.64;51.54
7930;BME280;4010;42.698;23.124;2023-03-11T11:52:26;118349.16;;;-140.64;52.75
7930;BME280;4010;42.698;23.124;2023-03-11T11:55:00;118349.16;;;-140.64;51.98
7930;BME280;4010;42.698;23.124;2023-03-11T11:57:28;118349.16;;;-140.64;52.35
7930;BME280;4010;42.698;23.124;2023-03-11T11:59:55;118349.16;;;-140.64;50.18
7930;BME280;4010;42.698;23.124;2023-03-11T12:02:37;118349.16;;;-140.64;51.56
7930;BME280;4010;42.698;23.124;2023-03-11T12:05:09;118349.16;;;-140.64;51.01
7930;BME280;4010;42.698;23.124;2023-03-11T12:08:03;118349.16;;;-140.64;51.07
7930;BME280;4010;42.698;23.124;2023-03-11T12:10:39;118349.16;;;-140.64;50.83
7930;BME280;4010;42.698;23.124;2023-03-11T12:13:31;118349.16;;;-140.64;50.63
7930;BME280;4010;42.698;23.124;2023-03-11T12:16:13;118349.16;;;-140.64;54.43
7930;BME280;4010;42.698;23.124;2023-03-11T12:18:46;118349.16;;;-140.64;52.97
7930;BME280;4010;42.698;23.124;2023-03-11T12:21:25;118349.16;;;-140.64;51.56
7930;BME280;4010;42.698;23.124;2023-03-11T12:24:10;118349.16;;;-140.64;52.53
7930;BME280;4010;42.698;23.124;2023-03-11T12:26:43;118349.16;;;-140.64;51.34
7930;BME280;4010;42.698;23.124;2023-03-11T12:29:17;118349.16;;;-140.64;49.84
7930;BME280;4010;42.698;23.124;2023-03-11T12:31:47;118349.16;;;-140.64;51.14
7930;BME280;4010;42.698;23.124;2023-03-11T12:34:18;118349.16;;;-140.64;51.29
7930;BME280;4010;42.698;23.124;2023-03-11T12:36:47;118349.16;;;-140.64;51.74
7930;BME280;4010;42.698;23.124;2023-03-11T12:39:21;118349.16;;;-140.64;50.97
7930;BME280;4010;42.698;23.124;2023-03-11T12:42:14;118349.16;;;-140.64;52.50
7930;BME280;4010;42.698;23.124;2023-03-11T12:44:42;118349.16;;;-140.64;52.34
7930;BME280;4010;42.698;23.124;2023-03-11T12:47:21;118349.16;;;-140.64;51.46